sensor_id;sensor_type;location;lat;lon;timestamp;pressure;altitude;pressure_sealevel;temperature;humidity
21863;BME280;11096;51.338;12.524;2023-07-31T00:01:43;99780.28;;;16.80;77.03
21863;BME280;11096;51.338;12.524;2023-07-31T00:04:08;99775.78;;;16.72;76.61
21863;BME280;11096;51.338;12.524;2023-07-31T00:06:33;99773.84;;;16.74;76.72
21863;BME280;11096;51.338;12.524;2023-07-31T00:08:59;99770.28;;;16.83;76.50
21863;BME280;11096;51.338;12.524;2023-07-31T00:11:25;99767.59;;;16.75;76.20
21863;BME280;11096;51.338;12.524;2023-07-31T00:13:50;99764.78;;;16.94;75.63
21863;BME280;11096;51.338;12.524;2023-07-31T00:16:15;99769.03;;;16.95;75.37
21863;BME280;11096;51.338;12.524;2023-07-31T00:18:41;99763.97;;;16.94;75.66
21863;BME280;11096;51.338;12.524;2023-07-31T00:21:06;99770.06;;;16.77;76.60
21863;BME280;11096;51.338;12.524;2023-07-31T00:23:32;99770.81;;;17.21;75.08
21863;BME280;11096;51.338;12.524;2023-07-31T00:25:57;99761.59;;;17.09;74.86
21863;BME280;11096;51.338;12.524;2023-07-31T00:28:22;99763.38;;;17.51;73.40
21863;BME280;11096;51.338;12.524;2023-07-31T00:30:48;99758.19;;;17.75;74.53
21863;BME280;11096;51.338;12.524;2023-07-31T00:33:13;99745.47;;;19.02;72.47
21863;BME280;11096;51.338;12.524;2023-07-31T00:35:39;99754.31;;;18.12;69.87
21863;BME280;11096;51.338;12.524;2023-07-31T00:38:04;99747.31;;;17.62;71.15
21863;BME280;11096;51.338;12.524;2023-07-31T00:40:34;99753.16;;;17.39;72.10
21863;BME280;11096;51.338;12.524;2023-07-31T00:42:59;99747.22;;;17.29;72.29
21863;BME280;11096;51.338;12.524;2023-07-31T00:45:25;99756.03;;;17.20;73.85
21863;BME280;11096;51.338;12.524;2023-07-31T00:47:52;99750.16;;;17.18;73.63
21863;BME280;11096;51.338;12.524;2023-07-31T00:50:18;99754.03;;;17.06;74.68
21863;BME280;11096;51.338;12.524;2023-07-31T00:52:44;99750.88;;;17.02;74.45
21863;BME280;11096;51.338;12.524;2023-07-31T00:55:09;99745.84;;;17.09;73.97
21863;BME280;11096;51.338;12.524;2023-07-31T00:57:36;99745.63;;;17.02;74.66
21863;BME280;11096;51.338;12.524;2023-07-31T01:00:03;99740.34;;;17.28;74.63
21863;BME280;11096;51.338;12.524;2023-07-31T01:02:29;99735.22;;;17.19;74.29
21863;BME280;11096;51.338;12.524;2023-07-31T01:04:54;99735.03;;;17.20;74.24
21863;BME280;11096;51.338;12.524;2023-07-31T01:07:45;99733.13;;;17.30;73.00
21863;BME280;11096;51.338;12.524;2023-07-31T01:10:23;99735.03;;;16.86;74.76
21863;BME280;11096;51.338;12.524;2023-07-31T01:12:51;99729.44;;;16.81;75.08
21863;BME280;11096;51.338;12.524;2023-07-31T01:15:18;99728.41;;;17.00;74.09
21863;BME280;11096;51.338;12.524;2023-07-31T01:17:44;99729.03;;;16.93;73.75
21863;BME280;11096;51.338;12.524;2023-07-31T01:20:21;99720.06;;;17.55;72.03
21863;BME280;11096;51.338;12.524;2023-07-31T01:31:15;99707.28;;;17.17;71.06
21863;BME280;11096;51.338;12.524;2023-07-31T01:33:41;99712.75;;;17.32;70.95
21863;BME280;11096;51.338;12.524;2023-07-31T01:36:07;99706.16;;;17.20;70.82
21863;BME280;11096;51.338;12.524;2023-07-31T01:38:33;99700.47;;;17.33;70.06
21863;BME280;11096;51.338;12.524;2023-07-31T01:40:58;99692.63;;;19.66;65.37
21863;BME280;11096;51.338;12.524;2023-07-31T01:43:24;99684.72;;;20.12;61.37
21863;BME280;11096;51.338;12.524;2023-07-31T01:45:49;99684.22;;;19.39;63.21
21863;BME280;11096;51.338;12.524;2023-07-31T01:48:15;99696.13;;;17.83;66.57
21863;BME280;11096;51.338;12.524;2023-07-31T01:50:40;99696.59;;;18.43;66.89
21863;BME280;11096;51.338;12.524;2023-07-31T01:53:05;99693.44;;;18.56;66.51
21863;BME280;11096;51.338;12.524;2023-07-31T01:55:31;99702.00;;;18.58;66.12
21863;BME280;11096;51.338;12.524;2023-07-31T01:57:56;99707.97;;;18.03;67.82
21863;BME280;11096;51.338;12.524;2023-07-31T02:00:22;99700.81;;;18.69;67.02
21863;BME280;11096;51.338;12.524;2023-07-31T02:02:47;99701.03;;;18.51;67.78
21863;BME280;11096;51.338;12.524;2023-07-31T02:05:13;99702.03;;;18.26;68.39
21863;BME280;11096;51.338;12.524;2023-07-31T02:07:38;99700.03;;;18.44;69.07
21863;BME280;11096;51.338;12.524;2023-07-31T02:10:04;99693.31;;;18.41;69.01
21863;BME280;11096;51.338;12.524;2023-07-31T02:12:29;99695.13;;;17.67;70.52
21863;BME280;11096;51.338;12.524;2023-07-31T02:14:57;99686.94;;;18.19;70.90
21863;BME280;11096;51.338;12.524;2023-07-31T02:17:22;99684.44;;;18.26;70.33
21863;BME280;11096;51.338;12.524;2023-07-31T02:19:48;99688.59;;;18.04;71.67
21863;BME280;11096;51.338;12.524;2023-07-31T02:22:13;99688.69;;;17.62;77.58
21863;BME280;11096;51.338;12.524;2023-07-31T02:24:39;99684.19;;;19.16;79.20
21863;BME280;11096;51.338;12.524;2023-07-31T02:27:05;99696.13;;;17.91;80.90
21863;BME280;11096;51.338;12.524;2023-07-31T02:29:30;99691.97;;;16.97;84.77
21863;BME280;11096;51.338;12.524;2023-07-31T02:31:55;99686.88;;;17.62;86.20
21863;BME280;11096;51.338;12.524;2023-07-31T02:34:21;99686.09;;;17.86;86.98
21863;BME280;11096;51.338;12.524;2023-07-31T02:36:46;99695.22;;;17.33;85.22
21863;BME280;11096;51.338;12.524;2023-07-31T02:39:11;99688.34;;;17.48;88.81
21863;BME280;11096;51.338;12.524;2023-07-31T02:41:37;99684.25;;;17.54;88.73
21863;BME280;11096;51.338;12.524;2023-07-31T02:44:02;99681.97;;;17.67;88.68
21863;BME280;11096;51.338;12.524;2023-07-31T02:46:28;99686.22;;;17.76;89.62
21863;BME280;11096;51.338;12.524;2023-07-31T02:48:53;99681.84;;;17.10;89.81
21863;BME280;11096;51.338;12.524;2023-07-31T02:51:18;99675.78;;;17.17;88.50
21863;BME280;11096;51.338;12.524;2023-07-31T02:53:45;99671.50;;;17.84;78.79
21863;BME280;11096;51.338;12.524;2023-07-31T02:56:11;99664.44;;;18.00;73.74
21863;BME280;11096;51.338;12.524;2023-07-31T02:58:36;99647.47;;;18.11;72.36
21863;BME280;11096;51.338;12.524;2023-07-31T03:01:01;99659.16;;;18.17;71.79
21863;BME280;11096;51.338;12.524;2023-07-31T03:03:27;99657.34;;;18.17;71.22
21863;BME280;11096;51.338;12.524;2023-07-31T03:05:52;99646.75;;;18.50;69.79
21863;BME280;11096;51.338;12.524;2023-07-31T03:08:18;99649.28;;;18.75;69.38
21863;BME280;11096;51.338;12.524;2023-07-31T03:10:43;99655.38;;;18.19;69.35
21863;BME280;11096;51.338;12.524;2023-07-31T03:13:09;99657.31;;;18.34;68.85
21863;BME280;11096;51.338;12.524;2023-07-31T03:15:34;99654.94;;;18.55;69.12
21863;BME280;11096;51.338;12.524;2023-07-31T03:17:59;99648.06;;;18.54;68.87
21863;BME280;11096;51.338;12.524;2023-07-31T03:20:25;99645.53;;;17.97;70.04
21863;BME280;11096;51.338;12.524;2023-07-31T03:22:50;99659.13;;;17.59;71.71
21863;BME280;11096;51.338;12.524;2023-07-31T03:25:15;99643.72;;;18.78;69.80
21863;BME280;11096;51.338;12.524;2023-07-31T03:27:41;99632.16;;;18.87;68.44
21863;BME280;11096;51.338;12.524;2023-07-31T03:30:06;99638.44;;;18.78;68.82
21863;BME280;11096;51.338;12.524;2023-07-31T03:32:32;99633.50;;;18.83;68.47
21863;BME280;11096;51.338;12.524;2023-07-31T03:34:58;99628.78;;;18.62;68.77
21863;BME280;11096;51.338;12.524;2023-07-31T03:37:23;99635.41;;;18.50;69.56
21863;BME280;11096;51.338;12.524;2023-07-31T03:39:49;99632.50;;;18.28;69.98
21863;BME280;11096;51.338;12.524;2023-07-31T03:42:14;99634.00;;;18.06;71.33
21863;BME280;11096;51.338;12.524;2023-07-31T03:44:40;99637.63;;;18.21;71.43
21863;BME280;11096;51.338;12.524;2023-07-31T03:47:05;99633.25;;;19.01;69.30
21863;BME280;11096;51.338;12.524;2023-07-31T03:49:31;99631.28;;;18.95;68.75
21863;BME280;11096;51.338;12.524;2023-07-31T03:51:56;99629.94;;;18.59;70.27
21863;BME280;11096;51.338;12.524;2023-07-31T03:54:21;99634.66;;;18.08;72.06
21863;BME280;11096;51.338;12.524;2023-07-31T03:56:47;99632.72;;;17.94;72.64
21863;BME280;11096;51.338;12.524;2023-07-31T03:59:12;99629.59;;;18.07;73.15
21863;BME280;11096;51.338;12.524;2023-07-31T04:01:37;99629.56;;;17.41;74.99
21863;BME280;11096;51.338;12.524;2023-07-31T04:04:03;99622.13;;;17.12;77.79
21863;BME280;11096;51.338;12.524;2023-07-31T04:06:28;99627.38;;;17.20;79.37
21863;BME280;11096;51.338;12.524;2023-07-31T04:08:54;99621.00;;;17.31;82.72
21863;BME280;11096;51.338;12.524;2023-07-31T04:11:19;99623.75;;;17.05;87.33
21863;BME280;11096;51.338;12.524;2023-07-31T04:13:45;99631.28;;;16.65;91.95
21863;BME280;11096;51.338;12.524;2023-07-31T04:16:10;99630.88;;;17.45;92.37
21863;BME280;11096;51.338;12.524;2023-07-31T04:18:35;99629.66;;;16.72;94.25
21863;BME280;11096;51.338;12.524;2023-07-31T04:21:01;99635.38;;;16.34;95.47
21863;BME280;11096;51.338;12.524;2023-07-31T04:23:27;99631.06;;;16.93;94.25
21863;BME280;11096;51.338;12.524;2023-07-31T04:25:53;99629.03;;;17.29;94.51
21863;BME280;11096;51.338;12.524;2023-07-31T04:28:18;99628.03;;;16.71;96.59
21863;BME280;11096;51.338;12.524;2023-07-31T04:30:44;99627.84;;;16.65;97.02
21863;BME280;11096;51.338;12.524;2023-07-31T04:33:09;99623.13;;;17.19;100.00
21863;BME280;11096;51.338;12.524;2023-07-31T04:35:35;99627.03;;;17.07;96.89
21863;BME280;11096;51.338;12.524;2023-07-31T04:38:00;99634.56;;;17.02;97.32
21863;BME280;11096;51.338;12.524;2023-07-31T04:40:25;99637.53;;;17.07;98.44
21863;BME280;11096;51.338;12.524;2023-07-31T04:42:51;99632.53;;;16.79;100.00
21863;BME280;11096;51.338;12.524;2023-07-31T04:45:16;99630.59;;;16.63;100.00
21863;BME280;11096;51.338;12.524;2023-07-31T04:47:42;99626.97;;;16.90;100.00
21863;BME280;11096;51.338;12.524;2023-07-31T04:50:07;99620.09;;;16.89;100.00
21863;BME280;11096;51.338;12.524;2023-07-31T04:52:33;99623.50;;;16.82;100.00
21863;BME280;11096;51.338;12.524;2023-07-31T04:54:58;99626.63;;;17.69;99.03
21863;BME280;11096;51.338;12.524;2023-07-31T04:57:24;99632.03;;;17.43;97.04
21863;BME280;11096;51.338;12.524;2023-07-31T04:59:49;99632.69;;;17.53;96.92
21863;BME280;11096;51.338;12.524;2023-07-31T05:02:15;99634.56;;;17.02;97.76
21863;BME280;11096;51.338;12.524;2023-07-31T05:04:40;99626.72;;;16.75;100.00
21863;BME280;11096;51.338;12.524;2023-07-31T05:07:05;99624.94;;;16.76;100.00
21863;BME280;11096;51.338;12.524;2023-07-31T05:09:31;99633.09;;;16.65;100.00
21863;BME280;11096;51.338;12.524;2023-07-31T05:11:56;99628.50;;;17.09;100.00
21863;BME280;11096;51.338;12.524;2023-07-31T05:14:22;99630.13;;;16.68;100.00
21863;BME280;11096;51.338;12.524;2023-07-31T05:16:47;99635.72;;;16.65;100.00
21863;BME280;11096;51.338;12.524;2023-07-31T05:19:12;99636.38;;;16.67;100.00
21863;BME280;11096;51.338;12.524;2023-07-31T05:21:38;99641.16;;;17.06;100.00
21863;BME280;11096;51.338;12.524;2023-07-31T05:24:04;99638.78;;;16.86;100.00
21863;BME280;11096;51.338;12.524;2023-07-31T05:26:29;99640.75;;;16.92;100.00
21863;BME280;11096;51.338;12.524;2023-07-31T05:28:55;99642.59;;;17.00;100.00
21863;BME280;11096;51.338;12.524;2023-07-31T05:31:20;99638.88;;;17.11;100.00
21863;BME280;11096;51.338;12.524;2023-07-31T05:33:47;99632.97;;;17.17;100.00
21863;BME280;11096;51.338;12.524;2023-07-31T05:36:15;99633.81;;;17.34;100.00
21863;BME280;11096;51.338;12.524;2023-07-31T05:38:40;99630.69;;;17.47;100.00
21863;BME280;11096;51.338;12.524;2023-07-31T05:41:05;99628.41;;;17.44;100.00
21863;BME280;11096;51.338;12.524;2023-07-31T05:43:31;99633.34;;;17.63;100.00
21863;BME280;11096;51.338;12.524;2023-07-31T05:45:56;99634.00;;;17.49;100.00
21863;BME280;11096;51.338;12.524;2023-07-31T05:48:21;99628.78;;;17.90;99.46
21863;BME280;11096;51.338;12.524;2023-07-31T05:50:47;99633.00;;;17.74;97.95
21863;BME280;11096;51.338;12.524;2023-07-31T05:53:12;99630.72;;;17.55;99.76
21863;BME280;11096;51.338;12.524;2023-07-31T05:55:38;99631.03;;;17.76;100.00
21863;BME280;11096;51.338;12.524;2023-07-31T05:58:03;99629.44;;;17.92;98.68
21863;BME280;11096;51.338;12.524;2023-07-31T06:00:28;99620.50;;;18.26;99.44
21863;BME280;11096;51.338;12.524;2023-07-31T06:02:54;99623.13;;;18.26;99.40
21863;BME280;11096;51.338;12.524;2023-07-31T06:05:19;99628.75;;;18.06;97.01
21863;BME280;11096;51.338;12.524;2023-07-31T06:07:45;99633.03;;;17.58;100.00
21863;BME280;11096;51.338;12.524;2023-07-31T06:10:11;99635.16;;;17.79;100.00
21863;BME280;11096;51.338;12.524;2023-07-31T06:12:36;99621.00;;;18.21;99.62
21863;BME280;11096;51.338;12.524;2023-07-31T06:15:03;99625.31;;;17.40;99.33
21863;BME280;11096;51.338;12.524;2023-07-31T06:17:29;99625.09;;;18.23;100.00
21863;BME280;11096;51.338;12.524;2023-07-31T06:19:55;99625.97;;;17.58;100.00
21863;BME280;11096;51.338;12.524;2023-07-31T06:22:21;99626.28;;;17.72;100.00
21863;BME280;11096;51.338;12.524;2023-07-31T06:24:46;99616.63;;;17.80;100.00
21863;BME280;11096;51.338;12.524;2023-07-31T06:27:12;99624.00;;;17.93;100.00
21863;BME280;11096;51.338;12.524;2023-07-31T06:29:37;99635.00;;;17.72;100.00
21863;BME280;11096;51.338;12.524;2023-07-31T06:32:03;99634.34;;;17.87;100.00
21863;BME280;11096;51.338;12.524;2023-07-31T06:34:28;99632.06;;;17.92;100.00
21863;BME280;11096;51.338;12.524;2023-07-31T06:36:55;99638.63;;;17.79;100.00
21863;BME280;11096;51.338;12.524;2023-07-31T06:39:20;99628.09;;;17.79;100.00
21863;BME280;11096;51.338;12.524;2023-07-31T06:41:46;99626.66;;;17.85;100.00
21863;BME280;11096;51.338;12.524;2023-07-31T06:44:11;99632.38;;;18.05;100.00
21863;BME280;11096;51.338;12.524;2023-07-31T06:46:37;99627.41;;;18.18;100.00
21863;BME280;11096;51.338;12.524;2023-07-31T06:49:03;99627.28;;;18.03;100.00
21863;BME280;11096;51.338;12.524;2023-07-31T06:51:28;99630.38;;;18.15;100.00
21863;BME280;11096;51.338;12.524;2023-07-31T06:53:53;99628.88;;;18.29;99.66
21863;BME280;11096;51.338;12.524;2023-07-31T06:56:20;99629.25;;;18.10;99.79
21863;BME280;11096;51.338;12.524;2023-07-31T06:58:45;99639.94;;;18.16;100.00
21863;BME280;11096;51.338;12.524;2023-07-31T07:01:11;99633.34;;;18.20;100.00
21863;BME280;11096;51.338;12.524;2023-07-31T07:03:36;99632.16;;;18.39;100.00
21863;BME280;11096;51.338;12.524;2023-07-31T07:06:01;99631.22;;;18.08;100.00
21863;BME280;11096;51.338;12.524;2023-07-31T07:08:27;99625.44;;;18.20;100.00
21863;BME280;11096;51.338;12.524;2023-07-31T07:10:52;99629.38;;;18.33;100.00
21863;BME280;11096;51.338;12.524;2023-07-31T07:13:18;99636.97;;;18.11;100.00
21863;BME280;11096;51.338;12.524;2023-07-31T07:15:49;99629.28;;;18.57;99.65
21863;BME280;11096;51.338;12.524;2023-07-31T07:18:15;99635.31;;;18.10;99.61
21863;BME280;11096;51.338;12.524;2023-07-31T07:20:46;99625.41;;;18.37;100.00
21863;BME280;11096;51.338;12.524;2023-07-31T07:23:12;99624.75;;;18.35;99.39
21863;BME280;11096;51.338;12.524;2023-07-31T07:25:38;99626.78;;;18.08;98.59
21863;BME280;11096;51.338;12.524;2023-07-31T07:28:03;99629.41;;;17.51;100.00
21863;BME280;11096;51.338;12.524;2023-07-31T07:30:28;99629.88;;;17.38;100.00
21863;BME280;11096;51.338;12.524;2023-07-31T07:32:54;99620.25;;;17.88;100.00
21863;BME280;11096;51.338;12.524;2023-07-31T07:35:19;99623.84;;;17.95;100.00
21863;BME280;11096;51.338;12.524;2023-07-31T07:37:45;99624.78;;;18.18;100.00
21863;BME280;11096;51.338;12.524;2023-07-31T07:40:10;99622.38;;;17.92;100.00
21863;BME280;11096;51.338;12.524;2023-07-31T07:42:36;99630.00;;;18.43;99.81
21863;BME280;11096;51.338;12.524;2023-07-31T07:45:01;99626.56;;;18.34;97.07
21863;BME280;11096;51.338;12.524;2023-07-31T07:47:27;99619.63;;;18.50;98.34
21863;BME280;11096;51.338;12.524;2023-07-31T07:49:52;99629.94;;;18.59;96.26
21863;BME280;11096;51.338;12.524;2023-07-31T07:52:17;99618.72;;;18.74;98.01
21863;BME280;11096;51.338;12.524;2023-07-31T07:54:43;99608.34;;;18.72;97.51
21863;BME280;11096;51.338;12.524;2023-07-31T07:57:08;99605.22;;;18.77;96.24
21863;BME280;11096;51.338;12.524;2023-07-31T07:59:33;99608.88;;;18.76;95.49
21863;BME280;11096;51.338;12.524;2023-07-31T08:01:59;99614.06;;;18.84;96.39
21863;BME280;11096;51.338;12.524;2023-07-31T08:04:24;99607.88;;;18.69;95.23
21863;BME280;11096;51.338;12.524;2023-07-31T08:06:50;99615.97;;;18.98;95.74
21863;BME280;11096;51.338;12.524;2023-07-31T08:09:15;99601.66;;;18.61;95.87
21863;BME280;11096;51.338;12.524;2023-07-31T08:11:40;99599.75;;;18.86;93.26
21863;BME280;11096;51.338;12.524;2023-07-31T08:14:06;99600.19;;;18.51;92.33
21863;BME280;11096;51.338;12.524;2023-07-31T08:16:31;99600.19;;;18.98;93.50
21863;BME280;11096;51.338;12.524;2023-07-31T08:18:57;99604.66;;;18.90;91.29
21863;BME280;11096;51.338;12.524;2023-07-31T08:21:22;99602.16;;;18.57;93.17
21863;BME280;11096;51.338;12.524;2023-07-31T08:23:48;99605.41;;;18.67;94.42
21863;BME280;11096;51.338;12.524;2023-07-31T08:26:17;99604.00;;;19.42;87.91
21863;BME280;11096;51.338;12.524;2023-07-31T08:28:43;99597.34;;;19.77;79.68
21863;BME280;11096;51.338;12.524;2023-07-31T08:31:08;99595.75;;;19.45;78.20
21863;BME280;11096;51.338;12.524;2023-07-31T08:33:33;99583.25;;;19.85;75.33
21863;BME280;11096;51.338;12.524;2023-07-31T08:35:59;99585.19;;;20.06;73.58
21863;BME280;11096;51.338;12.524;2023-07-31T08:38:26;99586.97;;;19.76;72.85
21863;BME280;11096;51.338;12.524;2023-07-31T08:40:51;99591.28;;;20.06;72.69
21863;BME280;11096;51.338;12.524;2023-07-31T08:43:17;99580.44;;;20.75;71.45
21863;BME280;11096;51.338;12.524;2023-07-31T08:45:44;99583.03;;;21.48;69.06
21863;BME280;11096;51.338;12.524;2023-07-31T08:48:11;99567.09;;;21.20;67.00
21863;BME280;11096;51.338;12.524;2023-07-31T08:50:38;99570.28;;;21.58;66.79
21863;BME280;11096;51.338;12.524;2023-07-31T08:53:03;99564.13;;;21.08;66.82
21863;BME280;11096;51.338;12.524;2023-07-31T08:55:29;99574.56;;;21.16;66.98
21863;BME280;11096;51.338;12.524;2023-07-31T08:57:55;99572.09;;;20.93;66.99
21863;BME280;11096;51.338;12.524;2023-07-31T09:00:21;99583.13;;;20.97;67.47
21863;BME280;11096;51.338;12.524;2023-07-31T09:05:46;99589.56;;;21.31;66.48
21863;BME280;11096;51.338;12.524;2023-07-31T09:08:12;99588.06;;;21.43;65.80
21863;BME280;11096;51.338;12.524;2023-07-31T09:10:42;99586.44;;;21.63;65.42
21863;BME280;11096;51.338;12.524;2023-07-31T09:13:09;99591.13;;;21.25;64.93
21863;BME280;11096;51.338;12.524;2023-07-31T09:15:36;99593.16;;;21.66;64.95
21863;BME280;11096;51.338;12.524;2023-07-31T09:18:03;99583.66;;;21.50;64.69
21863;BME280;11096;51.338;12.524;2023-07-31T09:20:29;99587.75;;;21.53;64.66
21863;BME280;11096;51.338;12.524;2023-07-31T09:22:55;99587.28;;;21.71;64.33
21863;BME280;11096;51.338;12.524;2023-07-31T09:25:24;99587.63;;;21.89;62.76
21863;BME280;11096;51.338;12.524;2023-07-31T09:27:53;99597.81;;;21.92;63.29
21863;BME280;11096;51.338;12.524;2023-07-31T09:30:19;99607.25;;;22.01;64.05
21863;BME280;11096;51.338;12.524;2023-07-31T09:32:46;99599.06;;;21.68;64.42
21863;BME280;11096;51.338;12.524;2023-07-31T09:35:36;99601.53;;;21.70;64.47
21863;BME280;11096;51.338;12.524;2023-07-31T09:38:17;99600.53;;;21.49;64.69
21863;BME280;11096;51.338;12.524;2023-07-31T09:40:44;99595.88;;;21.51;64.77
21863;BME280;11096;51.338;12.524;2023-07-31T09:43:22;99597.66;;;21.44;64.18
21863;BME280;11096;51.338;12.524;2023-07-31T09:45:55;99591.81;;;21.34;64.25
21863;BME280;11096;51.338;12.524;2023-07-31T09:48:23;99587.06;;;21.44;64.31
21863;BME280;11096;51.338;12.524;2023-07-31T09:50:53;99578.41;;;21.35;64.41
21863;BME280;11096;51.338;12.524;2023-07-31T09:53:19;99581.69;;;21.37;65.33
21863;BME280;11096;51.338;12.524;2023-07-31T09:55:44;99578.03;;;21.38;65.35
21863;BME280;11096;51.338;12.524;2023-07-31T09:58:11;99583.88;;;21.34;65.67
21863;BME280;11096;51.338;12.524;2023-07-31T10:00:37;99571.69;;;21.33;64.70
21863;BME280;11096;51.338;12.524;2023-07-31T10:03:08;99574.47;;;21.46;64.53
21863;BME280;11096;51.338;12.524;2023-07-31T10:08:00;99566.50;;;21.68;63.58
21863;BME280;11096;51.338;12.524;2023-07-31T10:10:26;99573.38;;;21.90;64.34
21863;BME280;11096;51.338;12.524;2023-07-31T10:12:53;99559.22;;;21.70;63.80
21863;BME280;11096;51.338;12.524;2023-07-31T10:15:20;99562.00;;;21.18;67.10
21863;BME280;11096;51.338;12.524;2023-07-31T10:17:49;99569.38;;;21.44;67.40
21863;BME280;11096;51.338;12.524;2023-07-31T10:20:16;99578.19;;;21.52;66.47
21863;BME280;11096;51.338;12.524;2023-07-31T10:22:43;99574.69;;;21.44;67.73
21863;BME280;11096;51.338;12.524;2023-07-31T10:25:09;99563.38;;;21.85;66.27
21863;BME280;11096;51.338;12.524;2023-07-31T10:27:41;99559.59;;;22.29;66.49
21863;BME280;11096;51.338;12.524;2023-07-31T10:30:13;99548.50;;;22.47;65.27
21863;BME280;11096;51.338;12.524;2023-07-31T10:32:41;99550.72;;;22.09;64.87
21863;BME280;11096;51.338;12.524;2023-07-31T10:35:09;99539.44;;;22.28;64.32
21863;BME280;11096;51.338;12.524;2023-07-31T10:37:40;99544.78;;;22.42;63.66
21863;BME280;11096;51.338;12.524;2023-07-31T10:40:19;99556.00;;;22.99;63.57
21863;BME280;11096;51.338;12.524;2023-07-31T10:42:50;99557.19;;;22.89;63.30
21863;BME280;11096;51.338;12.524;2023-07-31T10:45:34;99545.31;;;22.72;63.79
21863;BME280;11096;51.338;12.524;2023-07-31T10:48:12;99545.53;;;22.84;63.14
21863;BME280;11096;51.338;12.524;2023-07-31T10:50:46;99544.41;;;22.51;62.28
21863;BME280;11096;51.338;12.524;2023-07-31T10:53:32;99538.28;;;22.44;62.13
21863;BME280;11096;51.338;12.524;2023-07-31T10:55:58;99523.63;;;23.30;61.15
21863;BME280;11096;51.338;12.524;2023-07-31T10:58:24;99521.38;;;23.27;60.67
21863;BME280;11096;51.338;12.524;2023-07-31T11:00:55;99520.97;;;23.36;60.13
21863;BME280;11096;51.338;12.524;2023-07-31T11:03:25;99519.53;;;23.54;59.81
21863;BME280;11096;51.338;12.524;2023-07-31T11:06:03;99519.72;;;23.92;58.64
21863;BME280;11096;51.338;12.524;2023-07-31T11:08:31;99517.72;;;23.74;58.42
21863;BME280;11096;51.338;12.524;2023-07-31T11:13:48;99502.59;;;23.82;57.90
21863;BME280;11096;51.338;12.524;2023-07-31T11:16:23;99500.16;;;23.40;58.09
21863;BME280;11096;51.338;12.524;2023-07-31T11:18:50;99491.66;;;24.16;58.35
21863;BME280;11096;51.338;12.524;2023-07-31T11:21:18;99482.13;;;24.54;55.88
21863;BME280;11096;51.338;12.524;2023-07-31T11:23:51;99473.34;;;24.53;56.44
21863;BME280;11096;51.338;12.524;2023-07-31T11:26:18;99471.00;;;24.25;56.68
21863;BME280;11096;51.338;12.524;2023-07-31T11:28:46;99460.03;;;24.15;55.82
21863;BME280;11096;51.338;12.524;2023-07-31T11:31:12;99460.91;;;25.11;55.53
21863;BME280;11096;51.338;12.524;2023-07-31T11:33:37;99461.44;;;24.94;54.30
21863;BME280;11096;51.338;12.524;2023-07-31T11:36:03;99462.53;;;25.12;53.83
21863;BME280;11096;51.338;12.524;2023-07-31T11:38:31;99456.81;;;24.83;54.24
21863;BME280;11096;51.338;12.524;2023-07-31T11:41:02;99465.69;;;24.70;53.53
21863;BME280;11096;51.338;12.524;2023-07-31T11:43:28;99458.50;;;25.27;53.05
21863;BME280;11096;51.338;12.524;2023-07-31T11:45:58;99451.56;;;25.01;53.72
21863;BME280;11096;51.338;12.524;2023-07-31T11:48:28;99456.06;;;25.01;53.12
21863;BME280;11096;51.338;12.524;2023-07-31T11:50:57;99460.66;;;24.55;54.11
21863;BME280;11096;51.338;12.524;2023-07-31T11:53:40;99456.69;;;24.26;54.34
21863;BME280;11096;51.338;12.524;2023-07-31T11:56:07;99448.72;;;24.33;54.07
21863;BME280;11096;51.338;12.524;2023-07-31T11:58:34;99448.03;;;24.51;53.91
21863;BME280;11096;51.338;12.524;2023-07-31T12:01:01;99456.16;;;24.56;54.68
21863;BME280;11096;51.338;12.524;2023-07-31T12:03:27;99452.81;;;24.29;54.77
21863;BME280;11096;51.338;12.524;2023-07-31T12:05:54;99440.03;;;24.12;54.79
21863;BME280;11096;51.338;12.524;2023-07-31T12:08:23;99453.13;;;24.07;55.45
21863;BME280;11096;51.338;12.524;2023-07-31T12:10:53;99443.91;;;24.55;55.03
21863;BME280;11096;51.338;12.524;2023-07-31T12:13:26;99447.84;;;24.39;56.05
21863;BME280;11096;51.338;12.524;2023-07-31T12:15:57;99445.97;;;24.53;56.23
21863;BME280;11096;51.338;12.524;2023-07-31T12:18:24;99448.81;;;24.58;56.91
21863;BME280;11096;51.338;12.524;2023-07-31T12:20:55;99453.63;;;24.99;56.03
21863;BME280;11096;51.338;12.524;2023-07-31T12:23:22;99447.06;;;25.27;55.73
21863;BME280;11096;51.338;12.524;2023-07-31T12:26:02;99439.97;;;24.96;54.87
21863;BME280;11096;51.338;12.524;2023-07-31T12:28:28;99447.09;;;24.32;55.04
21863;BME280;11096;51.338;12.524;2023-07-31T12:30:57;99429.91;;;24.73;56.12
21863;BME280;11096;51.338;12.524;2023-07-31T12:33:30;99428.97;;;24.60;55.79
21863;BME280;11096;51.338;12.524;2023-07-31T12:35:56;99427.66;;;23.93;55.13
21863;BME280;11096;51.338;12.524;2023-07-31T12:38:22;99417.41;;;24.41;54.92
21863;BME280;11096;51.338;12.524;2023-07-31T12:40:47;99419.88;;;24.36;54.63
21863;BME280;11096;51.338;12.524;2023-07-31T12:43:13;99415.53;;;24.80;52.65
21863;BME280;11096;51.338;12.524;2023-07-31T12:45:38;99420.44;;;25.70;51.69
21863;BME280;11096;51.338;12.524;2023-07-31T12:48:04;99410.84;;;25.88;50.46
21863;BME280;11096;51.338;12.524;2023-07-31T12:50:29;99413.47;;;26.06;50.00
21863;BME280;11096;51.338;12.524;2023-07-31T12:52:56;99419.56;;;25.58;49.73
21863;BME280;11096;51.338;12.524;2023-07-31T12:55:22;99414.44;;;24.88;50.80
21863;BME280;11096;51.338;12.524;2023-07-31T12:57:48;99410.59;;;25.34;50.88
21863;BME280;11096;51.338;12.524;2023-07-31T13:00:14;99405.94;;;25.66;50.57
21863;BME280;11096;51.338;12.524;2023-07-31T13:02:39;99397.19;;;25.47;50.94